createdAt,value
2023-05-12T00:01:55.226Z,64.77
2023-05-12T00:06:13.458Z,64.95
2023-05-12T00:10:31.510Z,64.87
2023-05-12T00:14:48.941Z,65.31
2023-05-12T00:19:06.617Z,64.85
2023-05-12T00:23:24.285Z,64.99
2023-05-12T00:27:41.951Z,65.60
2023-05-12T00:31:59.914Z,65.70
2023-05-12T00:36:17.576Z,66.34
2023-05-12T00:40:35.184Z,66.62
2023-05-12T00:44:52.902Z,66.49
2023-05-12T00:49:10.931Z,66.24
2023-05-12T00:53:37.631Z,66.54
2023-05-12T00:58:03.008Z,66.21
2023-05-12T01:02:21.709Z,66.60
2023-05-12T01:06:49.440Z,67.05
2023-05-12T01:11:07.290Z,67.13
2023-05-12T01:15:24.955Z,67.45
2023-05-12T01:19:52.921Z,68.15
2023-05-12T01:24:12.455Z,67.99
2023-05-12T01:28:30.204Z,67.54
2023-05-12T01:32:47.776Z,67.32
2023-05-12T01:37:05.713Z,67.99
2023-05-12T01:41:23.206Z,68.08
2023-05-12T01:45:40.976Z,68.63
2023-05-12T01:49:58.503Z,68.70
2023-05-12T01:54:16.228Z,68.95
2023-05-12T01:58:33.878Z,69.19
2023-05-12T02:02:51.830Z,69.98
2023-05-12T02:07:10.262Z,69.35
2023-05-12T02:11:27.783Z,69.97
2023-05-12T02:15:46.054Z,69.97
2023-05-12T02:20:05.426Z,70.05
2023-05-12T02:24:23.075Z,70.15
2023-05-12T02:28:41.185Z,70.53
2023-05-12T02:32:58.733Z,70.49
2023-05-12T02:37:16.299Z,70.80
2023-05-12T02:41:34.353Z,70.87
2023-05-12T02:45:52.144Z,71.13
2023-05-12T02:50:10.058Z,71.15
2023-05-12T02:54:27.855Z,71.13
2023-05-12T02:58:46.004Z,71.10
2023-05-12T03:03:04.027Z,71.35
2023-05-12T03:07:21.879Z,71.35
2023-05-12T03:11:39.571Z,71.38
2023-05-12T03:16:01.547Z,71.74
2023-05-12T03:20:20.544Z,71.74
2023-05-12T03:24:38.526Z,71.97
2023-05-12T03:28:56.059Z,71.98
2023-05-12T03:33:13.782Z,71.78
2023-05-12T03:37:31.511Z,71.63
2023-05-12T03:41:49.123Z,71.73
2023-05-12T03:46:06.656Z,71.38
2023-05-12T03:50:24.500Z,71.03
2023-05-12T03:54:42.112Z,71.04
2023-05-12T03:58:59.839Z,70.93
2023-05-12T04:03:35.620Z,71.10
2023-05-12T04:07:53.792Z,70.87
2023-05-12T04:12:11.514Z,70.59
2023-05-12T04:16:29.500Z,69.94
2023-05-12T04:20:47.069Z,69.75
2023-05-12T04:25:05.188Z,69.87
2023-05-12T04:29:23.004Z,69.21
2023-05-12T04:33:40.966Z,68.77
2023-05-12T04:37:58.513Z,68.04
2023-05-12T04:42:16.188Z,67.44
2023-05-12T04:46:33.776Z,67.21
2023-05-12T04:50:51.662Z,66.68
2023-05-12T04:55:09.868Z,66.80
2023-05-12T04:59:27.417Z,66.41
2023-05-12T05:03:45.170Z,66.12
2023-05-12T05:08:03.080Z,65.65
2023-05-12T05:12:20.981Z,65.93
2023-05-12T05:16:39.251Z,65.61
2023-05-12T05:20:58.781Z,64.47
2023-05-12T05:25:17.221Z,64.02
2023-05-12T05:29:34.742Z,64.64
2023-05-12T05:33:52.439Z,63.49
2023-05-12T05:38:10.040Z,62.84
2023-05-12T05:42:27.682Z,62.54
2023-05-12T05:46:45.227Z,61.65
2023-05-12T05:51:03.130Z,61.47
2023-05-12T05:55:22.004Z,61.68
2023-05-12T05:59:40.089Z,61.41
2023-05-12T06:03:57.933Z,61.14
2023-05-12T06:08:16.616Z,60.92
2023-05-12T06:12:34.171Z,61.10
2023-05-12T06:16:52.307Z,59.51
2023-05-12T06:21:09.847Z,59.26
2023-05-12T06:25:27.815Z,58.24
2023-05-12T06:29:45.452Z,58.40
2023-05-12T06:34:03.883Z,56.96
2023-05-12T06:38:21.375Z,56.95
2023-05-12T06:42:39.108Z,56.37
2023-05-12T06:46:57.575Z,55.40
2023-05-12T06:51:15.230Z,56.19
2023-05-12T06:55:32.769Z,54.20
2023-05-12T06:59:51.022Z,53.73
2023-05-12T07:04:08.713Z,53.35
2023-05-12T07:08:28.279Z,53.85
2023-05-12T07:12:45.932Z,52.93
2023-05-12T07:17:04.385Z,50.76
2023-05-12T07:21:22.114Z,51.73
2023-05-12T07:25:40.368Z,51.34
2023-05-12T07:29:57.938Z,51.26
2023-05-12T07:34:15.703Z,51.62
2023-05-12T07:38:33.289Z,51.37
2023-05-12T07:42:51.272Z,50.13
2023-05-12T07:47:08.915Z,49.80
2023-05-12T07:51:26.690Z,49.33
2023-05-12T07:55:44.344Z,49.45
2023-05-12T08:00:03.249Z,49.04
2023-05-12T08:04:22.474Z,48.49
2023-05-12T08:08:40.018Z,46.99
2023-05-12T08:12:57.988Z,49.32
2023-05-12T08:17:15.668Z,49.72
2023-05-12T08:21:33.275Z,48.50
2023-05-12T08:25:51.017Z,47.93
2023-05-12T08:30:09.886Z,47.67
2023-05-12T08:34:27.972Z,47.40
2023-05-12T08:38:45.392Z,50.50
2023-05-12T08:43:30.359Z,48.10
2023-05-12T08:47:48.134Z,45.24
2023-05-12T08:52:06.732Z,45.60
2023-05-12T09:00:46.438Z,43.52
2023-05-12T09:05:04.327Z,42.24
2023-05-12T09:09:22.393Z,41.55
2023-05-12T09:14:08.845Z,41.36
2023-05-12T09:18:26.549Z,40.76
2023-05-12T09:22:44.086Z,40.70
2023-05-12T09:27:02.015Z,40.01
2023-05-12T09:31:24.788Z,40.40
2023-05-12T09:35:46.647Z,39.05
2023-05-12T09:40:06.917Z,41.19
2023-05-12T09:44:25.879Z,38.79
2023-05-12T09:48:43.436Z,39.38
2023-05-12T09:53:02.032Z,37.54
2023-05-12T09:57:23.133Z,36.41
2023-05-12T10:01:41.490Z,38.46
2023-05-12T10:06:04.154Z,36.14
2023-05-12T10:10:26.419Z,36.06
2023-05-12T10:14:44.484Z,34.16
2023-05-12T10:19:03.558Z,34.23
2023-05-12T10:23:21.572Z,34.38
2023-05-12T10:27:39.834Z,33.93
2023-05-12T10:31:58.102Z,33.22
2023-05-12T10:36:20.884Z,30.02
2023-05-12T10:40:58.353Z,29.15
2023-05-12T10:45:18.800Z,28.60
2023-05-12T10:49:41.983Z,28.49
2023-05-12T10:54:05.288Z,26.00
2023-05-12T10:58:23.085Z,26.11
2023-05-12T11:02:51.197Z,24.40
2023-05-12T11:07:12.178Z,23.78
2023-05-12T11:11:30.612Z,25.20
2023-05-12T11:15:48.216Z,22.94
2023-05-12T11:20:06.703Z,27.09
2023-05-12T11:24:24.804Z,26.00
2023-05-12T11:28:42.548Z,31.83
2023-05-12T11:33:02.636Z,26.55
2023-05-12T11:37:23.379Z,25.45
2023-05-12T11:41:41.513Z,21.31
2023-05-12T11:46:00.068Z,19.88
2023-05-12T11:50:23.401Z,19.40
2023-05-12T11:55:06.691Z,18.85
2023-05-12T11:59:33.568Z,24.84
2023-05-12T12:03:53.628Z,22.99
2023-05-12T12:08:17.010Z,27.61
2023-05-12T12:12:34.526Z,27.47
2023-05-12T12:16:52.080Z,22.70
2023-05-12T12:21:09.660Z,24.40
2023-05-12T12:25:27.355Z,22.15
2023-05-12T12:29:44.848Z,22.86
2023-05-12T12:34:04.102Z,20.39
2023-05-12T12:38:21.802Z,27.65
2023-05-12T12:42:41.185Z,23.14
2023-05-12T12:46:58.979Z,24.57
2023-05-12T12:51:16.716Z,23.80
2023-05-12T12:55:34.409Z,22.43
2023-05-12T12:59:51.980Z,26.19
2023-05-12T13:04:09.614Z,30.08
2023-05-12T13:08:27.448Z,27.84
2023-05-12T13:12:45.277Z,32.94
2023-05-12T13:17:02.784Z,26.17
2023-05-12T13:21:23.127Z,19.94
2023-05-12T13:25:40.847Z,19.82
2023-05-12T13:29:58.561Z,18.15
2023-05-12T13:34:16.094Z,23.89
2023-05-12T13:38:34.182Z,20.25
2023-05-12T13:42:51.960Z,26.79
2023-05-12T13:47:10.517Z,28.09
2023-05-12T13:51:28.241Z,26.83
2023-05-12T13:55:45.981Z,30.23
2023-05-12T14:00:04.734Z,27.32
2023-05-12T14:04:23.859Z,17.39
2023-05-12T14:08:41.943Z,15.13
2023-05-12T14:12:59.722Z,17.48
2023-05-12T14:17:17.919Z,15.76
2023-05-12T14:21:35.722Z,15.39
2023-05-12T14:25:53.382Z,15.56
2023-05-12T14:30:11.528Z,14.84
2023-05-12T14:34:29.063Z,14.69
2023-05-12T14:38:46.596Z,15.54
2023-05-12T14:43:05.023Z,14.19
2023-05-12T14:47:22.674Z,14.30
2023-05-12T14:51:41.675Z,15.41
2023-05-12T14:55:59.198Z,13.87
2023-05-12T15:00:17.520Z,15.45
2023-05-12T15:04:35.389Z,15.30
2023-05-12T15:08:53.276Z,13.58
2023-05-12T15:13:12.748Z,14.53
2023-05-12T15:17:30.998Z,15.64
2023-05-12T15:21:48.565Z,15.23
2023-05-12T15:26:26.848Z,16.31
2023-05-12T15:30:45.682Z,14.19
2023-05-12T15:35:03.710Z,13.90
2023-05-12T15:39:21.884Z,13.67
2023-05-12T15:43:41.367Z,15.01
2023-05-12T15:47:59.185Z,18.15
2023-05-12T15:52:16.896Z,20.88
2023-05-12T15:56:34.383Z,17.87
2023-05-12T16:00:54.745Z,17.86
2023-05-12T16:05:12.591Z,19.56
2023-05-12T16:09:30.261Z,21.85
2023-05-12T16:13:47.880Z,21.44
2023-05-12T16:18:09.157Z,24.70
2023-05-12T16:22:28.558Z,27.65
2023-05-12T16:26:46.264Z,29.72
2023-05-12T16:31:04.732Z,30.89
2023-05-12T16:35:23.310Z,32.63
2023-05-12T16:39:40.619Z,29.66
2023-05-12T16:43:58.565Z,27.34
2023-05-12T16:48:16.438Z,28.33
2023-05-12T16:52:35.725Z,32.58
2023-05-12T17:01:11.025Z,35.19
2023-05-12T17:05:28.596Z,36.34
2023-05-12T17:09:46.542Z,36.29
2023-05-12T17:14:05.077Z,38.26
2023-05-12T17:18:25.140Z,39.54
2023-05-12T17:22:44.552Z,40.49
2023-05-12T17:27:02.276Z,41.76
2023-05-12T17:31:20.206Z,42.41
2023-05-12T17:35:37.896Z,42.41
2023-05-12T17:39:55.429Z,43.34
2023-05-12T17:44:13.067Z,44.78
2023-05-12T17:48:34.015Z,45.30
2023-05-12T17:52:54.966Z,46.40
2023-05-12T17:57:12.445Z,46.42
2023-05-12T18:01:31.023Z,46.44
2023-05-12T18:05:48.878Z,47.81
2023-05-12T18:10:11.779Z,47.52
2023-05-12T18:14:30.747Z,47.60
2023-05-12T18:18:49.045Z,48.71
2023-05-12T18:23:07.081Z,49.69
2023-05-12T18:27:24.685Z,49.88
2023-05-12T18:31:44.282Z,50.23
2023-05-12T18:36:03.284Z,50.46
2023-05-12T18:40:20.962Z,50.28
2023-05-12T18:44:40.916Z,51.38
2023-05-12T18:48:58.464Z,51.10
2023-05-12T18:53:16.293Z,51.21
2023-05-12T18:57:34.358Z,52.75
2023-05-12T19:01:52.004Z,52.79
2023-05-12T19:06:09.811Z,52.95
2023-05-12T19:10:27.612Z,53.71
2023-05-12T19:14:45.340Z,53.77
2023-05-12T19:19:03.184Z,54.53
2023-05-12T19:23:21.389Z,54.73
2023-05-12T19:27:38.576Z,53.59
2023-05-12T19:31:56.516Z,53.49
2023-05-12T19:36:14.027Z,54.21
2023-05-12T19:40:32.487Z,53.86
2023-05-12T19:44:50.312Z,54.79
2023-05-12T19:49:07.920Z,54.95
2023-05-12T19:53:25.858Z,55.45
2023-05-12T19:57:44.116Z,54.66
2023-05-12T20:02:03.073Z,54.54
2023-05-12T20:06:22.561Z,54.80
2023-05-12T20:10:40.467Z,54.72
2023-05-12T20:14:58.051Z,54.67
2023-05-12T20:19:15.780Z,54.07
2023-05-12T20:23:33.495Z,54.63
2023-05-12T20:27:51.399Z,55.25
2023-05-12T20:32:08.949Z,55.99
2023-05-12T20:36:26.585Z,55.92
2023-05-12T20:40:43.807Z,55.65
2023-05-12T20:45:01.925Z,56.12
2023-05-12T20:49:19.792Z,56.17
2023-05-12T20:53:37.430Z,57.21
2023-05-12T20:57:55.679Z,56.29
2023-05-12T21:02:13.273Z,55.71
2023-05-12T21:06:31.105Z,56.61
2023-05-12T21:10:49.016Z,57.08
2023-05-12T21:15:10.740Z,57.69
2023-05-12T21:19:28.314Z,57.35
2023-05-12T21:23:46.632Z,57.27
2023-05-12T21:28:06.814Z,57.47
2023-05-12T21:32:25.008Z,57.92
2023-05-12T21:36:42.717Z,57.84
2023-05-12T21:41:01.513Z,58.76
2023-05-12T21:45:21.613Z,58.71
2023-05-12T21:49:39.348Z,59.00
2023-05-12T21:53:57.132Z,58.81
2023-05-12T21:58:15.369Z,58.46
2023-05-12T22:02:32.861Z,59.71
2023-05-12T22:06:51.026Z,59.30
2023-05-12T22:11:09.117Z,60.25
2023-05-12T22:15:26.767Z,59.42
2023-05-12T22:19:44.604Z,60.33
2023-05-12T22:24:02.258Z,61.03
2023-05-12T22:28:19.841Z,60.72
2023-05-12T22:32:37.642Z,61.54
2023-05-12T22:36:55.268Z,61.45
2023-05-12T22:41:12.933Z,61.66
2023-05-12T22:45:30.968Z,62.35
2023-05-12T22:49:48.717Z,61.86
2023-05-12T22:54:06.280Z,62.57
2023-05-12T22:58:24.141Z,62.70
2023-05-12T23:02:41.212Z,63.08
2023-05-12T23:06:58.916Z,63.86
2023-05-12T23:11:16.757Z,65.10
2023-05-12T23:15:34.288Z,65.72
2023-05-12T23:19:55.117Z,66.02
2023-05-12T23:24:12.639Z,66.37
2023-05-12T23:28:30.378Z,66.79
2023-05-12T23:32:50.588Z,67.28
2023-05-12T23:37:08.676Z,67.38
2023-05-12T23:41:26.301Z,67.63
2023-05-12T23:45:46.707Z,68.15
2023-05-12T23:50:04.682Z,68.37
2023-05-12T23:54:22.505Z,68.86
2023-05-12T23:58:43.043Z,68.92
